sensor_id;sensor_type;location;lat;lon;timestamp;pressure;altitude;pressure_sealevel;temperature;humidity
76026;BME280;64721;51.084;17.242;2022-11-15T00:00:03;1004.11;;;5.00;81.30
76026;BME280;64721;51.084;17.242;2022-11-15T00:02:31;1004.11;;;4.94;81.46
76026;BME280;64721;51.084;17.242;2022-11-15T00:04:28;1004.08;;;5.02;81.52
76026;BME280;64721;51.084;17.242;2022-11-15T00:06:26;1004.07;;;5.04;81.21
76026;BME280;64721;51.084;17.242;2022-11-15T00:08:10;1004.06;;;5.02;81.17
76026;BME280;64721;51.084;17.242;2022-11-15T00:10:10;1003.99;;;5.01;81.21
76026;BME280;64721;51.084;17.242;2022-11-15T00:12:13;1003.91;;;4.94;81.42
76026;BME280;64721;51.084;17.242;2022-11-15T00:14:11;1003.89;;;5.00;81.50
76026;BME280;64721;51.084;17.242;2022-11-15T00:16:08;1003.84;;;5.04;81.35
76026;BME280;64721;51.084;17.242;2022-11-15T00:18:06;1003.86;;;5.03;81.42
76026;BME280;64721;51.084;17.242;2022-11-15T00:20:23;1003.77;;;5.07;81.36
76026;BME280;64721;51.084;17.242;2022-11-15T00:22:10;1003.80;;;5.09;81.41
76026;BME280;64721;51.084;17.242;2022-11-15T00:25:51;1003.80;;;5.12;81.37
76026;BME280;64721;51.084;17.242;2022-11-15T00:28:06;1003.71;;;5.09;81.10
76026;BME280;64721;51.084;17.242;2022-11-15T00:30:03;1003.71;;;5.07;81.14
76026;BME280;64721;51.084;17.242;2022-11-15T00:32:00;1003.71;;;5.08;81.25
76026;BME280;64721;51.084;17.242;2022-11-15T00:33:58;1003.73;;;5.09;81.19
76026;BME280;64721;51.084;17.242;2022-11-15T00:35:43;1003.70;;;5.09;81.20
76026;BME280;64721;51.084;17.242;2022-11-15T00:37:27;1003.71;;;5.07;81.19
76026;BME280;64721;51.084;17.242;2022-11-15T00:39:23;1003.73;;;5.04;81.19
76026;BME280;64721;51.084;17.242;2022-11-15T00:41:10;1003.72;;;5.08;81.31
76026;BME280;64721;51.084;17.242;2022-11-15T00:43:07;1003.72;;;5.05;81.25
76026;BME280;64721;51.084;17.242;2022-11-15T00:44:51;1003.66;;;5.03;81.31
76026;BME280;64721;51.084;17.242;2022-11-15T00:46:49;1003.63;;;5.03;81.20
76026;BME280;64721;51.084;17.242;2022-11-15T00:48:47;1003.62;;;5.01;81.26
76026;BME280;64721;51.084;17.242;2022-11-15T00:50:31;1003.66;;;5.00;81.34
76026;BME280;64721;51.084;17.242;2022-11-15T00:52:58;1003.64;;;4.97;81.14
76026;BME280;64721;51.084;17.242;2022-11-15T00:54:55;1003.55;;;4.95;81.35
76026;BME280;64721;51.084;17.242;2022-11-15T00:56:53;1003.56;;;4.92;81.44
76026;BME280;64721;51.084;17.242;2022-11-15T00:58:36;1003.54;;;4.90;81.51
76026;BME280;64721;51.084;17.242;2022-11-15T01:00:31;1003.53;;;4.87;81.53
76026;BME280;64721;51.084;17.242;2022-11-15T01:02:20;1003.51;;;4.86;81.42
76026;BME280;64721;51.084;17.242;2022-11-15T01:05:00;1003.58;;;4.85;81.48
76026;BME280;64721;51.084;17.242;2022-11-15T01:06:44;1003.59;;;4.87;81.48
76026;BME280;64721;51.084;17.242;2022-11-15T01:08:41;1003.61;;;4.91;81.32
76026;BME280;64721;51.084;17.242;2022-11-15T01:10:25;1003.59;;;4.92;81.21
76026;BME280;64721;51.084;17.242;2022-11-15T01:12:41;1003.61;;;4.88;81.21
76026;BME280;64721;51.084;17.242;2022-11-15T01:14:25;1003.57;;;4.87;81.16
76026;BME280;64721;51.084;17.242;2022-11-15T01:16:23;1003.56;;;4.87;81.15
76026;BME280;64721;51.084;17.242;2022-11-15T01:18:27;1003.57;;;4.84;81.15
76026;BME280;64721;51.084;17.242;2022-11-15T01:20:25;1003.48;;;4.83;81.28
76026;BME280;64721;51.084;17.242;2022-11-15T01:22:24;1003.52;;;4.72;81.46
76026;BME280;64721;51.084;17.242;2022-11-15T01:24:08;1003.51;;;4.79;81.25
76026;BME280;64721;51.084;17.242;2022-11-15T01:25:55;1003.46;;;4.70;81.47
76026;BME280;64721;51.084;17.242;2022-11-15T01:27:50;1003.43;;;4.70;81.42
76026;BME280;64721;51.084;17.242;2022-11-15T01:29:35;1003.36;;;4.65;81.69
76026;BME280;64721;51.084;17.242;2022-11-15T01:31:50;1003.40;;;4.62;81.46
76026;BME280;64721;51.084;17.242;2022-11-15T01:33:34;1003.37;;;4.60;81.92
76026;BME280;64721;51.084;17.242;2022-11-15T01:35:33;1003.35;;;4.61;81.71
76026;BME280;64721;51.084;17.242;2022-11-15T01:37:32;1003.34;;;4.58;81.70
76026;BME280;64721;51.084;17.242;2022-11-15T01:39:43;1003.40;;;4.53;81.78
76026;BME280;64721;51.084;17.242;2022-11-15T01:41:41;1003.40;;;4.40;82.23
76026;BME280;64721;51.084;17.242;2022-11-15T01:46:23;1003.33;;;4.49;82.28
76026;BME280;64721;51.084;17.242;2022-11-15T01:48:52;1003.28;;;4.42;82.07
76026;BME280;64721;51.084;17.242;2022-11-15T01:50:38;1003.25;;;4.50;81.99
76026;BME280;64721;51.084;17.242;2022-11-15T01:52:24;1003.20;;;4.48;81.71
76026;BME280;64721;51.084;17.242;2022-11-15T01:54:39;1003.20;;;4.43;81.63
76026;BME280;64721;51.084;17.242;2022-11-15T01:56:27;1003.13;;;4.38;81.92
76026;BME280;64721;51.084;17.242;2022-11-15T01:58:56;1003.10;;;4.30;81.81
76026;BME280;64721;51.084;17.242;2022-11-15T02:03:37;1003.05;;;4.29;81.87
76026;BME280;64721;51.084;17.242;2022-11-15T02:05:25;1003.01;;;4.37;81.83
76026;BME280;64721;51.084;17.242;2022-11-15T02:07:11;1002.95;;;4.48;81.63
76026;BME280;64721;51.084;17.242;2022-11-15T02:08:58;1002.91;;;4.66;81.27
76026;BME280;64721;51.084;17.242;2022-11-15T02:10:56;1002.89;;;4.71;81.04
76026;BME280;64721;51.084;17.242;2022-11-15T02:12:54;1002.85;;;4.87;80.71
76026;BME280;64721;51.084;17.242;2022-11-15T02:15:07;1002.89;;;4.91;80.08
76026;BME280;64721;51.084;17.242;2022-11-15T02:17:15;1002.89;;;4.74;80.15
76026;BME280;64721;51.084;17.242;2022-11-15T02:19:51;1002.90;;;4.49;81.01
76026;BME280;64721;51.084;17.242;2022-11-15T02:21:52;1002.92;;;4.33;81.70
76026;BME280;64721;51.084;17.242;2022-11-15T02:26:04;1002.86;;;4.30;81.41
76026;BME280;64721;51.084;17.242;2022-11-15T02:30:47;1002.78;;;4.31;81.06
76026;BME280;64721;51.084;17.242;2022-11-15T02:33:03;1002.83;;;4.19;81.16
76026;BME280;64721;51.084;17.242;2022-11-15T02:35:11;1002.89;;;4.04;81.57
76026;BME280;64721;51.084;17.242;2022-11-15T02:37:16;1002.93;;;3.89;82.15
76026;BME280;64721;51.084;17.242;2022-11-15T02:39:10;1002.78;;;4.02;81.73
76026;BME280;64721;51.084;17.242;2022-11-15T02:41:01;1002.75;;;4.00;81.41
76026;BME280;64721;51.084;17.242;2022-11-15T02:42:53;1002.77;;;3.95;81.78
76026;BME280;64721;51.084;17.242;2022-11-15T02:45:11;1002.77;;;3.91;81.54
76026;BME280;64721;51.084;17.242;2022-11-15T02:47:13;1002.71;;;3.90;81.59
76026;BME280;64721;51.084;17.242;2022-11-15T02:49:16;1002.69;;;3.88;81.61
76026;BME280;64721;51.084;17.242;2022-11-15T02:51:17;1002.68;;;3.81;81.79
76026;BME280;64721;51.084;17.242;2022-11-15T02:53:42;1002.60;;;3.82;81.72
76026;BME280;64721;51.084;17.242;2022-11-15T02:55:45;1002.55;;;3.84;81.48
76026;BME280;64721;51.084;17.242;2022-11-15T02:57:51;1002.49;;;3.83;81.40
76026;BME280;64721;51.084;17.242;2022-11-15T02:59:57;1002.50;;;3.88;81.18
76026;BME280;64721;51.084;17.242;2022-11-15T03:02:03;1002.49;;;3.84;81.03
76026;BME280;64721;51.084;17.242;2022-11-15T03:04:03;1002.55;;;3.71;81.44
76026;BME280;64721;51.084;17.242;2022-11-15T03:06:15;1002.44;;;3.73;81.28
76026;BME280;64721;51.084;17.242;2022-11-15T03:08:26;1002.43;;;3.69;81.37
76026;BME280;64721;51.084;17.242;2022-11-15T03:10:31;1002.49;;;3.67;81.53
76026;BME280;64721;51.084;17.242;2022-11-15T03:12:33;1002.47;;;3.72;81.20
76026;BME280;64721;51.084;17.242;2022-11-15T03:14:37;1002.54;;;3.56;81.59
76026;BME280;64721;51.084;17.242;2022-11-15T03:18:46;1002.52;;;3.64;81.16
76026;BME280;64721;51.084;17.242;2022-11-15T03:22:33;1002.54;;;3.60;81.28
76026;BME280;64721;51.084;17.242;2022-11-15T03:24:34;1002.47;;;3.48;81.29
76026;BME280;64721;51.084;17.242;2022-11-15T03:28:52;1002.41;;;3.42;81.47
76026;BME280;64721;51.084;17.242;2022-11-15T03:31:06;1002.38;;;3.45;81.40
76026;BME280;64721;51.084;17.242;2022-11-15T03:33:12;1002.39;;;3.47;81.24
76026;BME280;64721;51.084;17.242;2022-11-15T03:35:12;1002.42;;;3.42;81.27
76026;BME280;64721;51.084;17.242;2022-11-15T03:37:14;1002.43;;;3.39;81.21
76026;BME280;64721;51.084;17.242;2022-11-15T03:39:02;1002.41;;;3.37;81.23
76026;BME280;64721;51.084;17.242;2022-11-15T03:40:51;1002.37;;;3.34;81.29
76026;BME280;64721;51.084;17.242;2022-11-15T03:42:57;1002.35;;;3.34;81.09
76026;BME280;64721;51.084;17.242;2022-11-15T03:45:02;1002.38;;;3.17;81.80
76026;BME280;64721;51.084;17.242;2022-11-15T03:46:53;1002.33;;;3.28;81.49
76026;BME280;64721;51.084;17.242;2022-11-15T03:48:59;1002.32;;;3.26;81.27
76026;BME280;64721;51.084;17.242;2022-11-15T03:51:03;1002.26;;;3.30;81.29
76026;BME280;64721;51.084;17.242;2022-11-15T03:53:16;1002.21;;;3.29;81.06
76026;BME280;64721;51.084;17.242;2022-11-15T03:55:27;1002.20;;;3.25;81.16
76026;BME280;64721;51.084;17.242;2022-11-15T03:57:25;1002.26;;;3.08;81.57
76026;BME280;64721;51.084;17.242;2022-11-15T03:59:36;1002.22;;;3.08;81.72
76026;BME280;64721;51.084;17.242;2022-11-15T04:01:37;1002.21;;;3.13;81.37
76026;BME280;64721;51.084;17.242;2022-11-15T04:03:36;1002.24;;;3.15;81.48
76026;BME280;64721;51.084;17.242;2022-11-15T04:05:48;1002.21;;;3.19;81.21
76026;BME280;64721;51.084;17.242;2022-11-15T04:07:32;1002.23;;;3.24;81.08
76026;BME280;64721;51.084;17.242;2022-11-15T04:09:29;1002.25;;;3.15;81.20
76026;BME280;64721;51.084;17.242;2022-11-15T04:11:28;1002.24;;;3.14;81.16
76026;BME280;64721;51.084;17.242;2022-11-15T04:13:13;1002.24;;;3.10;81.23
76026;BME280;64721;51.084;17.242;2022-11-15T04:14:57;1002.22;;;3.03;81.24
76026;BME280;64721;51.084;17.242;2022-11-15T04:17:09;1002.26;;;2.96;81.32
76026;BME280;64721;51.084;17.242;2022-11-15T04:19:22;1002.23;;;3.07;81.13
76026;BME280;64721;51.084;17.242;2022-11-15T04:21:06;1002.20;;;3.13;81.03
76026;BME280;64721;51.084;17.242;2022-11-15T04:23:04;1002.20;;;3.10;80.86
76026;BME280;64721;51.084;17.242;2022-11-15T04:25:03;1002.24;;;3.02;80.96
76026;BME280;64721;51.084;17.242;2022-11-15T04:26:47;1002.24;;;3.00;80.99
76026;BME280;64721;51.084;17.242;2022-11-15T04:28:44;1002.22;;;2.98;80.89
76026;BME280;64721;51.084;17.242;2022-11-15T04:30:42;1002.22;;;2.84;81.29
76026;BME280;64721;51.084;17.242;2022-11-15T04:32:42;1002.18;;;2.73;81.69
76026;BME280;64721;51.084;17.242;2022-11-15T04:34:53;1002.20;;;2.70;82.03
76026;BME280;64721;51.084;17.242;2022-11-15T04:36:37;1002.16;;;2.82;81.76
76026;BME280;64721;51.084;17.242;2022-11-15T04:38:36;1002.19;;;2.86;81.49
76026;BME280;64721;51.084;17.242;2022-11-15T04:40:34;1002.15;;;2.87;81.32
76026;BME280;64721;51.084;17.242;2022-11-15T04:43:17;1002.11;;;2.95;81.01
76026;BME280;64721;51.084;17.242;2022-11-15T04:45:16;1002.10;;;2.94;81.15
76026;BME280;64721;51.084;17.242;2022-11-15T04:47:00;1002.06;;;2.95;80.99
76026;BME280;64721;51.084;17.242;2022-11-15T04:49:04;1002.07;;;2.88;80.86
76026;BME280;64721;51.084;17.242;2022-11-15T04:51:02;1002.09;;;2.85;80.95
76026;BME280;64721;51.084;17.242;2022-11-15T04:52:54;1002.01;;;2.83;80.95
76026;BME280;64721;51.084;17.242;2022-11-15T04:58:53;1002.10;;;2.71;80.97
76026;BME280;64721;51.084;17.242;2022-11-15T05:01:22;1002.06;;;2.66;81.27
76026;BME280;64721;51.084;17.242;2022-11-15T05:03:35;1002.02;;;2.67;81.35
76026;BME280;64721;51.084;17.242;2022-11-15T05:05:19;1001.97;;;2.73;81.34
76026;BME280;64721;51.084;17.242;2022-11-15T05:07:03;1001.97;;;2.79;80.99
76026;BME280;64721;51.084;17.242;2022-11-15T05:09:26;1001.94;;;2.77;80.95
76026;BME280;64721;51.084;17.242;2022-11-15T05:11:39;1001.94;;;2.94;80.96
76026;BME280;64721;51.084;17.242;2022-11-15T05:13:36;1001.89;;;3.02;80.67
76026;BME280;64721;51.084;17.242;2022-11-15T05:15:34;1001.85;;;3.02;80.44
76026;BME280;64721;51.084;17.242;2022-11-15T05:17:31;1001.88;;;2.92;80.61
76026;BME280;64721;51.084;17.242;2022-11-15T05:19:37;1001.80;;;2.82;80.93
76026;BME280;64721;51.084;17.242;2022-11-15T05:21:35;1001.83;;;2.81;80.76
76026;BME280;64721;51.084;17.242;2022-11-15T05:23:33;1001.87;;;2.58;81.27
76026;BME280;64721;51.084;17.242;2022-11-15T05:25:47;1001.85;;;2.49;81.85
76026;BME280;64721;51.084;17.242;2022-11-15T05:27:44;1001.84;;;2.61;81.55
76026;BME280;64721;51.084;17.242;2022-11-15T05:29:38;1001.82;;;2.70;81.22
76026;BME280;64721;51.084;17.242;2022-11-15T05:31:36;1001.79;;;2.74;80.75
76026;BME280;64721;51.084;17.242;2022-11-15T05:33:55;1001.77;;;2.70;80.71
76026;BME280;64721;51.084;17.242;2022-11-15T05:35:54;1001.81;;;2.72;80.70
76026;BME280;64721;51.084;17.242;2022-11-15T05:37:42;1001.80;;;2.71;80.74
76026;BME280;64721;51.084;17.242;2022-11-15T05:39:54;1001.79;;;2.69;80.76
76026;BME280;64721;51.084;17.242;2022-11-15T05:41:53;1001.73;;;2.66;80.69
76026;BME280;64721;51.084;17.242;2022-11-15T05:43:38;1001.77;;;2.61;80.72
76026;BME280;64721;51.084;17.242;2022-11-15T05:45:43;1001.77;;;2.54;80.95
76026;BME280;64721;51.084;17.242;2022-11-15T05:47:50;1001.74;;;2.48;81.12
76026;BME280;64721;51.084;17.242;2022-11-15T05:49:50;1001.74;;;2.48;81.34
76026;BME280;64721;51.084;17.242;2022-11-15T05:52:22;1001.77;;;2.51;81.15
76026;BME280;64721;51.084;17.242;2022-11-15T05:54:21;1001.77;;;2.50;81.24
76026;BME280;64721;51.084;17.242;2022-11-15T05:56:19;1001.79;;;2.68;80.75
76026;BME280;64721;51.084;17.242;2022-11-15T05:58:16;1001.72;;;2.69;80.51
76026;BME280;64721;51.084;17.242;2022-11-15T06:00:20;1001.76;;;2.68;80.44
76026;BME280;64721;51.084;17.242;2022-11-15T06:02:38;1001.75;;;2.64;80.39
76026;BME280;64721;51.084;17.242;2022-11-15T06:04:31;1001.79;;;2.70;80.34
76026;BME280;64721;51.084;17.242;2022-11-15T06:06:56;1001.77;;;2.68;80.09
76026;BME280;64721;51.084;17.242;2022-11-15T06:08:41;1001.75;;;2.67;80.22
76026;BME280;64721;51.084;17.242;2022-11-15T06:10:39;1001.74;;;2.63;80.22
76026;BME280;64721;51.084;17.242;2022-11-15T06:12:36;1001.71;;;2.62;80.40
76026;BME280;64721;51.084;17.242;2022-11-15T06:14:20;1001.68;;;2.61;80.54
76026;BME280;64721;51.084;17.242;2022-11-15T06:16:18;1001.77;;;2.67;80.33
76026;BME280;64721;51.084;17.242;2022-11-15T06:19:00;1001.80;;;2.66;80.06
76026;BME280;64721;51.084;17.242;2022-11-15T06:20:44;1001.87;;;2.55;80.53
76026;BME280;64721;51.084;17.242;2022-11-15T06:22:29;1001.89;;;2.55;80.66
76026;BME280;64721;51.084;17.242;2022-11-15T06:24:26;1001.91;;;2.59;80.49
76026;BME280;64721;51.084;17.242;2022-11-15T06:26:24;1001.92;;;2.63;80.43
76026;BME280;64721;51.084;17.242;2022-11-15T06:28:22;1001.93;;;2.70;80.29
76026;BME280;64721;51.084;17.242;2022-11-15T06:30:22;1001.88;;;2.73;80.14
76026;BME280;64721;51.084;17.242;2022-11-15T06:33:05;1001.83;;;2.76;79.90
76026;BME280;64721;51.084;17.242;2022-11-15T06:35:15;1001.84;;;2.77;79.92
76026;BME280;64721;51.084;17.242;2022-11-15T06:37:27;1001.81;;;2.85;79.70
76026;BME280;64721;51.084;17.242;2022-11-15T06:39:29;1001.82;;;2.91;79.41
76026;BME280;64721;51.084;17.242;2022-11-15T06:41:28;1001.78;;;2.93;79.37
76026;BME280;64721;51.084;17.242;2022-11-15T06:43:28;1001.77;;;2.92;79.45
76026;BME280;64721;51.084;17.242;2022-11-15T06:45:12;1001.81;;;2.91;79.46
76026;BME280;64721;51.084;17.242;2022-11-15T06:46:56;1001.84;;;2.75;79.90
76026;BME280;64721;51.084;17.242;2022-11-15T06:48:40;1001.92;;;2.75;80.58
76026;BME280;64721;51.084;17.242;2022-11-15T06:50:38;1001.91;;;2.83;80.40
76026;BME280;64721;51.084;17.242;2022-11-15T06:52:35;1001.95;;;2.89;80.12
76026;BME280;64721;51.084;17.242;2022-11-15T06:54:33;1001.93;;;2.88;79.99
76026;BME280;64721;51.084;17.242;2022-11-15T06:56:17;1001.88;;;2.98;79.92
76026;BME280;64721;51.084;17.242;2022-11-15T06:58:14;1001.81;;;3.07;79.58
76026;BME280;64721;51.084;17.242;2022-11-15T07:00:24;1001.79;;;3.13;79.56
76026;BME280;64721;51.084;17.242;2022-11-15T07:02:25;1001.82;;;3.17;79.66
76026;BME280;64721;51.084;17.242;2022-11-15T07:04:25;1001.76;;;3.25;79.34
76026;BME280;64721;51.084;17.242;2022-11-15T07:06:38;1001.75;;;3.31;79.30
76026;BME280;64721;51.084;17.242;2022-11-15T07:08:36;1001.77;;;3.42;79.30
76026;BME280;64721;51.084;17.242;2022-11-15T07:10:35;1001.73;;;3.48;79.01
76026;BME280;64721;51.084;17.242;2022-11-15T07:12:33;1001.73;;;3.52;79.01
76026;BME280;64721;51.084;17.242;2022-11-15T07:14:17;1001.87;;;3.62;78.84
76026;BME280;64721;51.084;17.242;2022-11-15T07:16:01;1001.96;;;3.48;79.71
76026;BME280;64721;51.084;17.242;2022-11-15T07:18:05;1001.97;;;3.42;80.90
76026;BME280;64721;51.084;17.242;2022-11-15T07:20:02;1001.97;;;3.52;80.54
76026;BME280;64721;51.084;17.242;2022-11-15T07:21:58;1002.01;;;3.66;79.78
76026;BME280;64721;51.084;17.242;2022-11-15T07:23:55;1002.02;;;3.55;81.87
76026;BME280;64721;51.084;17.242;2022-11-15T07:25:39;1001.98;;;3.60;82.04
76026;BME280;64721;51.084;17.242;2022-11-15T07:27:36;1001.99;;;3.74;81.23
76026;BME280;64721;51.084;17.242;2022-11-15T07:29:34;1002.00;;;3.80;80.73
76026;BME280;64721;51.084;17.242;2022-11-15T07:31:47;1002.06;;;3.77;81.69
76026;BME280;64721;51.084;17.242;2022-11-15T07:34:00;1002.13;;;4.02;80.81
76026;BME280;64721;51.084;17.242;2022-11-15T07:36:13;1002.07;;;4.02;80.68
76026;BME280;64721;51.084;17.242;2022-11-15T07:38:17;1002.06;;;4.14;80.45
76026;BME280;64721;51.084;17.242;2022-11-15T07:40:16;1002.02;;;4.15;80.73
76026;BME280;64721;51.084;17.242;2022-11-15T07:42:02;1001.98;;;4.31;80.41
76026;BME280;64721;51.084;17.242;2022-11-15T07:43:46;1001.91;;;4.40;80.08
76026;BME280;64721;51.084;17.242;2022-11-15T07:46:03;1001.93;;;4.51;79.74
76026;BME280;64721;51.084;17.242;2022-11-15T07:47:50;1001.92;;;4.64;79.51
76026;BME280;64721;51.084;17.242;2022-11-15T07:49:34;1001.85;;;4.71;79.25
76026;BME280;64721;51.084;17.242;2022-11-15T07:51:40;1001.83;;;4.74;79.27
76026;BME280;64721;51.084;17.242;2022-11-15T07:53:24;1001.80;;;4.83;79.44
76026;BME280;64721;51.084;17.242;2022-11-15T07:55:37;1001.83;;;4.86;79.27
76026;BME280;64721;51.084;17.242;2022-11-15T07:57:36;1001.83;;;5.00;79.30
76026;BME280;64721;51.084;17.242;2022-11-15T07:59:20;1001.80;;;5.13;79.17
76026;BME280;64721;51.084;17.242;2022-11-15T08:01:17;1001.86;;;5.22;78.87
76026;BME280;64721;51.084;17.242;2022-11-15T08:03:08;1001.87;;;5.25;78.80
76026;BME280;64721;51.084;17.242;2022-11-15T08:05:08;1001.87;;;5.20;79.40
76026;BME280;64721;51.084;17.242;2022-11-15T08:06:56;1001.91;;;5.23;79.56
76026;BME280;64721;51.084;17.242;2022-11-15T08:08:54;1001.87;;;5.32;79.41
76026;BME280;64721;51.084;17.242;2022-11-15T08:10:38;1001.82;;;5.53;79.17
76026;BME280;64721;51.084;17.242;2022-11-15T08:12:22;1001.80;;;5.67;78.94
76026;BME280;64721;51.084;17.242;2022-11-15T08:14:11;1001.78;;;5.76;79.06
76026;BME280;64721;51.084;17.242;2022-11-15T08:16:09;1001.79;;;5.91;78.74
76026;BME280;64721;51.084;17.242;2022-11-15T08:17:52;1001.76;;;6.01;78.43
76026;BME280;64721;51.084;17.242;2022-11-15T08:20:05;1001.74;;;5.97;78.68
76026;BME280;64721;51.084;17.242;2022-11-15T08:22:04;1001.74;;;6.05;78.84
76026;BME280;64721;51.084;17.242;2022-11-15T08:24:02;1001.76;;;6.09;78.95
76026;BME280;64721;51.084;17.242;2022-11-15T08:26:14;1001.70;;;6.09;79.01
76026;BME280;64721;51.084;17.242;2022-11-15T08:28:15;1001.75;;;6.13;79.42
76026;BME280;64721;51.084;17.242;2022-11-15T08:30:13;1001.65;;;5.99;80.02
76026;BME280;64721;51.084;17.242;2022-11-15T08:32:12;1001.67;;;6.27;79.38
76026;BME280;64721;51.084;17.242;2022-11-15T08:33:56;1001.61;;;6.43;79.05
76026;BME280;64721;51.084;17.242;2022-11-15T08:35:55;1001.59;;;6.52;78.91
76026;BME280;64721;51.084;17.242;2022-11-15T08:38:08;1001.56;;;6.64;78.75
76026;BME280;64721;51.084;17.242;2022-11-15T08:40:07;1001.52;;;6.74;78.63
76026;BME280;64721;51.084;17.242;2022-11-15T08:41:51;1001.54;;;6.83;78.63
76026;BME280;64721;51.084;17.242;2022-11-15T08:43:55;1001.55;;;6.90;78.53
76026;BME280;64721;51.084;17.242;2022-11-15T08:45:52;1001.48;;;6.99;78.60
76026;BME280;64721;51.084;17.242;2022-11-15T08:47:53;1001.45;;;7.08;78.47
76026;BME280;64721;51.084;17.242;2022-11-15T08:49:38;1001.36;;;7.24;78.38
76026;BME280;64721;51.084;17.242;2022-11-15T08:51:35;1001.37;;;7.32;78.26
76026;BME280;64721;51.084;17.242;2022-11-15T08:53:46;1001.37;;;7.44;78.12
76026;BME280;64721;51.084;17.242;2022-11-15T08:55:43;1001.36;;;7.60;78.07
76026;BME280;64721;51.084;17.242;2022-11-15T08:57:27;1001.31;;;7.68;78.04
76026;BME280;64721;51.084;17.242;2022-11-15T08:59:12;1001.33;;;7.71;78.04
76026;BME280;64721;51.084;17.242;2022-11-15T09:00:56;1001.30;;;7.78;78.11
76026;BME280;64721;51.084;17.242;2022-11-15T09:03:08;1001.30;;;7.97;77.95
76026;BME280;64721;51.084;17.242;2022-11-15T09:04:52;1001.28;;;7.98;78.01
76026;BME280;64721;51.084;17.242;2022-11-15T09:06:50;1001.30;;;8.02;78.06
76026;BME280;64721;51.084;17.242;2022-11-15T09:08:35;1001.26;;;8.19;78.01
76026;BME280;64721;51.084;17.242;2022-11-15T09:11:02;1001.28;;;8.24;78.03
76026;BME280;64721;51.084;17.242;2022-11-15T09:13:01;1001.30;;;8.41;77.95
76026;BME280;64721;51.084;17.242;2022-11-15T09:14:45;1001.32;;;8.41;78.11
76026;BME280;64721;51.084;17.242;2022-11-15T09:16:46;1001.34;;;8.53;77.97
76026;BME280;64721;51.084;17.242;2022-11-15T09:18:31;1001.32;;;8.64;77.82
76026;BME280;64721;51.084;17.242;2022-11-15T09:20:29;1001.35;;;8.65;77.92
76026;BME280;64721;51.084;17.242;2022-11-15T09:22:26;1001.37;;;8.82;77.75
76026;BME280;64721;51.084;17.242;2022-11-15T09:24:25;1001.37;;;8.92;77.63
76026;BME280;64721;51.084;17.242;2022-11-15T09:26:10;1001.39;;;8.97;77.91
76026;BME280;64721;51.084;17.242;2022-11-15T09:28:10;1001.34;;;9.08;77.64
76026;BME280;64721;51.084;17.242;2022-11-15T09:30:09;1001.28;;;9.13;77.91
76026;BME280;64721;51.084;17.242;2022-11-15T09:32:23;1001.33;;;9.19;78.05
76026;BME280;64721;51.084;17.242;2022-11-15T09:34:26;1001.34;;;9.27;78.15
76026;BME280;64721;51.084;17.242;2022-11-15T09:36:30;1001.33;;;9.39;78.01
76026;BME280;64721;51.084;17.242;2022-11-15T09:38:43;1001.29;;;9.48;78.05
76026;BME280;64721;51.084;17.242;2022-11-15T09:40:57;1001.24;;;9.62;77.96
76026;BME280;64721;51.084;17.242;2022-11-15T09:43:31;1001.21;;;9.80;77.73
76026;BME280;64721;51.084;17.242;2022-11-15T09:45:41;1001.18;;;9.98;77.53
76026;BME280;64721;51.084;17.242;2022-11-15T09:48:04;1001.14;;;10.03;77.63
76026;BME280;64721;51.084;17.242;2022-11-15T09:50:36;1001.12;;;10.23;77.63
76026;BME280;64721;51.084;17.242;2022-11-15T09:52:28;1001.06;;;10.41;77.47
76026;BME280;64721;51.084;17.242;2022-11-15T09:54:32;1001.06;;;10.52;77.34
76026;BME280;64721;51.084;17.242;2022-11-15T09:56:35;1001.03;;;10.69;77.10
76026;BME280;64721;51.084;17.242;2022-11-15T09:58:52;1001.07;;;10.83;76.53
76026;BME280;64721;51.084;17.242;2022-11-15T10:01:08;1001.00;;;10.87;76.64
76026;BME280;64721;51.084;17.242;2022-11-15T10:03:29;1000.95;;;10.94;76.49
76026;BME280;64721;51.084;17.242;2022-11-15T10:05:29;1000.90;;;10.95;76.61
76026;BME280;64721;51.084;17.242;2022-11-15T10:07:19;1000.85;;;10.95;76.82
76026;BME280;64721;51.084;17.242;2022-11-15T10:09:23;1000.83;;;10.94;76.82
76026;BME280;64721;51.084;17.242;2022-11-15T10:11:30;1000.81;;;10.98;77.09
76026;BME280;64721;51.084;17.242;2022-11-15T10:13:22;1000.77;;;11.03;77.09
76026;BME280;64721;51.084;17.242;2022-11-15T10:15:22;1000.80;;;11.17;76.83
76026;BME280;64721;51.084;17.242;2022-11-15T10:17:49;1000.75;;;11.28;76.64
76026;BME280;64721;51.084;17.242;2022-11-15T10:19:43;1000.74;;;11.35;76.71
76026;BME280;64721;51.084;17.242;2022-11-15T10:21:32;1000.70;;;11.37;76.75
76026;BME280;64721;51.084;17.242;2022-11-15T10:23:31;1000.71;;;11.41;76.99
76026;BME280;64721;51.084;17.242;2022-11-15T10:27:30;1000.68;;;11.59;76.65
76026;BME280;64721;51.084;17.242;2022-11-15T10:29:24;1000.66;;;11.72;76.45
76026;BME280;64721;51.084;17.242;2022-11-15T10:31:26;1000.64;;;11.76;76.38
76026;BME280;64721;51.084;17.242;2022-11-15T10:33:29;1000.66;;;11.78;76.42
76026;BME280;64721;51.084;17.242;2022-11-15T10:35:36;1000.59;;;11.72;76.79
76026;BME280;64721;51.084;17.242;2022-11-15T10:37:43;1000.56;;;11.82;75.26
76026;BME280;64721;51.084;17.242;2022-11-15T10:40:14;1000.54;;;11.88;76.50
76026;BME280;64721;51.084;17.242;2022-11-15T10:42:34;1000.47;;;12.04;76.58
76026;BME280;64721;51.084;17.242;2022-11-15T10:44:45;1000.46;;;12.10;76.33
76026;BME280;64721;51.084;17.242;2022-11-15T10:46:38;1000.41;;;12.32;75.35
76026;BME280;64721;51.084;17.242;2022-11-15T10:50:48;1000.32;;;12.34;75.78
76026;BME280;64721;51.084;17.242;2022-11-15T10:52:48;1000.31;;;12.28;76.21
76026;BME280;64721;51.084;17.242;2022-11-15T10:54:47;1000.27;;;12.35;76.37
76026;BME280;64721;51.084;17.242;2022-11-15T10:56:50;1000.27;;;12.51;75.92
76026;BME280;64721;51.084;17.242;2022-11-15T10:58:50;1000.28;;;12.58;75.93
76026;BME280;64721;51.084;17.242;2022-11-15T11:00:50;1000.26;;;12.47;76.14
76026;BME280;64721;51.084;17.242;2022-11-15T11:03:04;1000.26;;;12.62;75.92
76026;BME280;64721;51.084;17.242;2022-11-15T11:04:54;1000.24;;;12.80;75.38
76026;BME280;64721;51.084;17.242;2022-11-15T11:08:43;1000.26;;;12.81;75.38
76026;BME280;64721;51.084;17.242;2022-11-15T11:10:57;1000.21;;;12.78;75.46
76026;BME280;64721;51.084;17.242;2022-11-15T11:13:44;1000.23;;;13.03;75.17